createdAt,value
2022-08-14T00:02:01.518Z,18.30
2022-08-14T00:04:32.092Z,18.30
2022-08-14T00:07:14.139Z,18.20
2022-08-14T00:10:01.881Z,18.20
2022-08-14T00:12:48.154Z,18.20
2022-08-14T00:15:25.464Z,18.10
2022-08-14T00:17:58.229Z,18.10
2022-08-14T00:20:31.101Z,18.00
2022-08-14T00:23:12.505Z,18.00
2022-08-14T00:25:54.037Z,17.90
2022-08-14T00:28:35.186Z,17.90
2022-08-14T00:31:04.913Z,17.80
2022-08-14T00:33:52.247Z,17.70
2022-08-14T00:36:35.797Z,17.60
2022-08-14T00:39:18.229Z,17.50
2022-08-14T00:41:46.925Z,17.50
2022-08-14T00:44:26.590Z,17.40
2022-08-14T00:47:01.471Z,17.50
2022-08-14T00:49:31.056Z,17.50
2022-08-14T00:52:07.021Z,17.40
2022-08-14T00:54:38.759Z,17.40
2022-08-14T00:57:08.571Z,17.40
2022-08-14T00:59:37.135Z,17.30
2022-08-14T01:02:09.418Z,17.30
2022-08-14T01:04:53.716Z,17.20
2022-08-14T01:07:23.672Z,17.10
2022-08-14T01:09:54.800Z,17.10
2022-08-14T01:12:27.019Z,17.00
2022-08-14T01:14:59.197Z,16.90
2022-08-14T01:17:50.715Z,16.90
2022-08-14T01:20:39.879Z,16.80
2022-08-14T01:23:16.046Z,16.80
2022-08-14T01:25:48.477Z,16.80
2022-08-14T01:28:34.276Z,16.70
2022-08-14T01:31:12.202Z,16.70
2022-08-14T01:33:44.693Z,16.60
2022-08-14T01:36:36.579Z,16.50
2022-08-14T01:39:12.673Z,16.50
2022-08-14T01:41:42.465Z,16.40
2022-08-14T01:44:33.562Z,16.40
2022-08-14T01:47:19.598Z,16.40
2022-08-14T01:49:59.653Z,16.40
2022-08-14T01:52:34.559Z,16.40
2022-08-14T01:55:23.192Z,16.30
2022-08-14T01:58:18.107Z,16.30
2022-08-14T02:00:40.033Z,16.30
2022-08-14T02:03:08.889Z,16.30
2022-08-14T02:05:38.914Z,16.30
2022-08-14T02:08:08.914Z,16.20
2022-08-14T02:10:46.710Z,16.20
2022-08-14T02:13:16.908Z,16.10
2022-08-14T02:15:48.376Z,16.10
2022-08-14T02:18:18.206Z,16.10
2022-08-14T02:20:48.953Z,16.00
2022-08-14T02:23:28.961Z,16.00
2022-08-14T02:26:24.036Z,16.00
2022-08-14T02:28:56.900Z,15.90
2022-08-14T02:31:42.607Z,15.90
2022-08-14T02:34:22.451Z,15.90
2022-08-14T02:37:06.128Z,15.90
2022-08-14T02:39:37.286Z,15.90
2022-08-14T02:42:13.384Z,15.80
2022-08-14T02:44:49.152Z,15.80
2022-08-14T02:47:21.097Z,15.70
2022-08-14T02:49:54.876Z,15.70
2022-08-14T02:52:55.589Z,15.60
2022-08-14T02:55:19.769Z,15.60
2022-08-14T02:57:57.973Z,15.60
2022-08-14T03:00:33.452Z,15.50
2022-08-14T03:03:03.363Z,15.50
2022-08-14T03:05:41.637Z,15.50
2022-08-14T03:08:16.213Z,15.50
2022-08-14T03:10:49.293Z,15.50
2022-08-14T03:13:21.084Z,15.50
2022-08-14T03:15:55.665Z,15.50
2022-08-14T03:18:30.620Z,15.50
2022-08-14T03:21:02.236Z,15.50
2022-08-14T03:23:36.326Z,15.50
2022-08-14T03:26:08.701Z,15.60
2022-08-14T03:28:43.668Z,15.60
2022-08-14T03:31:13.620Z,15.60
2022-08-14T03:33:45.471Z,15.60
2022-08-14T03:37:29.684Z,15.60
2022-08-14T03:39:21.298Z,15.60
2022-08-14T03:41:52.435Z,15.60
2022-08-14T03:45:19.340Z,15.50
2022-08-14T03:47:11.634Z,15.40
2022-08-14T03:49:42.321Z,15.30
2022-08-14T03:52:37.908Z,15.30
2022-08-14T03:55:00.430Z,15.20
2022-08-14T03:57:32.941Z,15.10
2022-08-14T04:00:13.900Z,15.10
2022-08-14T04:02:59.175Z,15.00
2022-08-14T04:05:27.159Z,14.90
2022-08-14T04:08:08.244Z,14.90
2022-08-14T04:10:38.488Z,14.80
2022-08-14T04:13:07.634Z,14.80
2022-08-14T04:15:55.907Z,14.80
2022-08-14T04:18:25.353Z,14.80
2022-08-14T04:20:54.890Z,14.80
2022-08-14T04:23:29.987Z,14.70
2022-08-14T04:26:03.282Z,14.70
2022-08-14T04:29:05.460Z,14.70
2022-08-14T04:32:56.775Z,14.70
2022-08-14T04:34:20.568Z,14.70
2022-08-14T04:37:10.692Z,14.70
2022-08-14T04:39:57.904Z,14.70
2022-08-14T04:42:47.460Z,14.80
2022-08-14T04:45:21.837Z,14.80
2022-08-14T04:48:10.082Z,14.90
2022-08-14T04:50:44.587Z,15.00
2022-08-14T04:53:23.236Z,15.10
2022-08-14T04:55:55.045Z,15.10
2022-08-14T04:58:32.829Z,15.10
2022-08-14T05:01:03.335Z,15.10
2022-08-14T05:03:35.632Z,15.20
2022-08-14T05:06:38.185Z,15.30
2022-08-14T05:08:59.648Z,15.30
2022-08-14T05:11:33.437Z,15.40
2022-08-14T05:14:34.186Z,15.50
2022-08-14T05:16:53.664Z,15.50
2022-08-14T05:19:29.441Z,15.60
2022-08-14T05:22:16.035Z,15.80
2022-08-14T05:24:48.669Z,15.80
2022-08-14T05:27:23.153Z,15.90
2022-08-14T05:29:53.794Z,16.00
2022-08-14T05:32:27.800Z,16.10
2022-08-14T05:34:59.088Z,16.30
2022-08-14T05:37:29.864Z,16.30
2022-08-14T05:40:00.429Z,16.50
2022-08-14T05:42:34.094Z,16.60
2022-08-14T05:45:04.599Z,16.70
2022-08-14T05:47:39.662Z,16.80
2022-08-14T05:50:17.348Z,16.90
2022-08-14T05:52:49.190Z,17.10
2022-08-14T05:55:22.155Z,17.20
2022-08-14T05:57:57.689Z,17.30
2022-08-14T06:00:31.682Z,17.50
2022-08-14T06:03:08.574Z,17.60
2022-08-14T06:05:39.198Z,17.60
2022-08-14T06:08:31.162Z,17.70
2022-08-14T06:11:05.586Z,17.80
2022-08-14T06:13:44.965Z,18.00
2022-08-14T06:16:17.665Z,18.10
2022-08-14T06:18:48.375Z,18.20
2022-08-14T06:21:17.895Z,18.30
2022-08-14T06:23:48.947Z,18.40
2022-08-14T06:26:20.462Z,18.50
2022-08-14T06:28:52.426Z,18.60
2022-08-14T06:31:22.869Z,18.70
2022-08-14T06:35:02.186Z,18.80
2022-08-14T06:36:40.754Z,19.00
2022-08-14T06:39:10.925Z,19.10
2022-08-14T06:41:59.417Z,19.20
2022-08-14T06:44:30.922Z,19.40
2022-08-14T06:47:01.635Z,19.50
2022-08-14T06:49:30.430Z,19.60
2022-08-14T06:52:00.760Z,19.70
2022-08-14T06:54:31.170Z,19.80
2022-08-14T06:57:00.169Z,20.00
2022-08-14T06:59:28.404Z,20.10
2022-08-14T07:02:17.707Z,20.30
2022-08-14T07:05:05.257Z,20.30
2022-08-14T07:07:39.186Z,20.40
2022-08-14T07:10:16.920Z,20.60
2022-08-14T07:13:01.551Z,20.70
2022-08-14T07:15:32.383Z,20.90
2022-08-14T07:18:02.458Z,21.10
2022-08-14T07:20:32.110Z,21.10
2022-08-14T07:23:08.115Z,21.30
2022-08-14T07:25:38.881Z,21.30
2022-08-14T07:28:13.023Z,21.50
2022-08-14T07:30:50.754Z,21.50
2022-08-14T07:33:28.883Z,21.60
2022-08-14T07:36:00.197Z,21.80
2022-08-14T07:38:35.728Z,21.90
2022-08-14T07:41:11.871Z,22.00
2022-08-14T07:43:55.214Z,22.20
2022-08-14T07:46:28.562Z,22.40
2022-08-14T07:48:59.454Z,22.50
2022-08-14T07:51:34.148Z,22.60
2022-08-14T07:54:04.371Z,22.80
2022-08-14T07:56:43.967Z,22.90
2022-08-14T07:59:18.458Z,23.00
2022-08-14T08:01:51.545Z,23.10
2022-08-14T08:04:27.156Z,23.20
2022-08-14T08:06:55.849Z,23.40
2022-08-14T08:09:31.949Z,23.50
2022-08-14T08:12:05.107Z,23.60
2022-08-14T08:14:56.928Z,23.70
2022-08-14T08:17:28.260Z,23.90
2022-08-14T08:20:03.318Z,24.00
2022-08-14T08:22:32.680Z,24.10
2022-08-14T08:25:02.280Z,24.20
2022-08-14T08:27:30.321Z,24.30
2022-08-14T08:30:10.165Z,24.40
2022-08-14T08:32:41.243Z,24.60
2022-08-14T08:35:20.664Z,24.70
2022-08-14T08:37:48.934Z,24.80
2022-08-14T08:40:35.754Z,25.00
2022-08-14T08:43:19.109Z,25.00
2022-08-14T08:45:55.414Z,25.10
2022-08-14T08:48:31.649Z,25.10
2022-08-14T08:51:06.240Z,25.10
2022-08-14T08:53:36.438Z,25.20
2022-08-14T08:56:06.009Z,25.20
2022-08-14T08:58:38.980Z,25.30
2022-08-14T09:01:07.368Z,25.50
2022-08-14T09:03:43.950Z,25.50
2022-08-14T09:06:54.033Z,25.60
2022-08-14T09:09:00.445Z,25.80
2022-08-14T09:11:30.565Z,25.90
2022-08-14T09:14:00.552Z,26.00
2022-08-14T09:16:28.573Z,26.10
2022-08-14T09:18:56.879Z,26.20
2022-08-14T09:21:31.508Z,26.30
2022-08-14T09:24:28.020Z,26.20
2022-08-14T09:26:50.799Z,26.30
2022-08-14T09:29:22.812Z,26.30
2022-08-14T09:31:57.291Z,26.40
2022-08-14T09:34:58.162Z,26.40
2022-08-14T09:37:38.509Z,26.50
2022-08-14T09:40:20.730Z,26.60
2022-08-14T09:43:03.571Z,26.80
2022-08-14T09:45:39.935Z,26.70
2022-08-14T09:48:29.943Z,26.80
2022-08-14T09:54:19.585Z,26.90
2022-08-14T09:56:57.510Z,27.00
2022-08-14T09:59:32.130Z,27.00
2022-08-14T10:02:02.057Z,27.20
2022-08-14T10:04:34.331Z,27.20
2022-08-14T10:07:06.252Z,27.20
2022-08-14T10:09:59.687Z,27.30
2022-08-14T10:12:44.833Z,27.20
2022-08-14T10:15:23.810Z,27.30
2022-08-14T10:18:09.245Z,27.40
2022-08-14T10:20:44.968Z,27.50
2022-08-14T10:23:17.816Z,27.60
2022-08-14T10:25:50.701Z,27.70
2022-08-14T10:28:39.308Z,27.90
2022-08-14T10:31:25.392Z,28.00
2022-08-14T10:34:12.982Z,28.10
2022-08-14T10:36:47.872Z,28.20
2022-08-14T10:39:19.854Z,28.30
2022-08-14T10:41:49.419Z,28.40
2022-08-14T10:44:29.658Z,28.50
2022-08-14T10:47:39.554Z,28.60
2022-08-14T10:50:00.869Z,28.80
2022-08-14T10:52:31.828Z,28.90
2022-08-14T10:55:14.047Z,28.80
2022-08-14T10:57:51.642Z,29.00
2022-08-14T11:00:29.898Z,29.00
2022-08-14T11:03:09.475Z,29.00
2022-08-14T11:05:43.296Z,29.10
2022-08-14T11:08:13.834Z,29.20
2022-08-14T11:10:46.834Z,29.20
2022-08-14T11:13:23.787Z,29.30
2022-08-14T11:15:53.188Z,29.40
2022-08-14T11:18:30.128Z,29.50
2022-08-14T11:21:02.160Z,29.60
2022-08-14T11:23:38.346Z,29.60
2022-08-14T11:26:10.681Z,29.70
2022-08-14T11:28:46.178Z,29.70
2022-08-14T11:31:15.850Z,29.80
2022-08-14T11:33:50.084Z,30.00
2022-08-14T11:36:18.992Z,30.10
2022-08-14T11:38:48.209Z,30.30
2022-08-14T11:41:17.628Z,30.40
2022-08-14T11:43:58.456Z,30.50
2022-08-14T11:46:30.563Z,30.70
2022-08-14T11:49:08.074Z,30.80
2022-08-14T11:51:54.148Z,30.90
2022-08-14T11:54:34.026Z,31.10
2022-08-14T11:57:04.431Z,31.40
2022-08-14T11:59:34.162Z,31.50
2022-08-14T12:03:01.213Z,31.60
2022-08-14T12:05:04.228Z,31.70
2022-08-14T12:07:33.289Z,31.90
2022-08-14T12:10:26.815Z,32.00
2022-08-14T12:12:55.277Z,32.20
2022-08-14T12:15:32.385Z,32.00
2022-08-14T12:18:02.037Z,31.90
2022-08-14T12:20:36.644Z,32.00
2022-08-14T12:23:06.167Z,31.80
2022-08-14T12:25:36.077Z,31.70
2022-08-14T12:28:27.435Z,31.60
2022-08-14T12:31:00.844Z,31.60
2022-08-14T12:33:33.621Z,31.60
2022-08-14T12:36:06.265Z,31.60
2022-08-14T12:38:36.494Z,31.60
2022-08-14T12:41:11.210Z,31.60
2022-08-14T12:43:51.402Z,31.60
2022-08-14T12:46:28.350Z,31.80
2022-08-14T12:48:59.847Z,31.90
2022-08-14T12:51:31.370Z,32.10
2022-08-14T12:54:01.505Z,32.30
2022-08-14T12:56:33.764Z,32.40
2022-08-14T12:59:03.509Z,32.30
2022-08-14T13:02:00.467Z,32.30
2022-08-14T13:04:22.885Z,32.20
2022-08-14T13:06:53.681Z,32.10
2022-08-14T13:09:27.923Z,32.10
2022-08-14T13:12:32.122Z,32.30
2022-08-14T13:14:58.958Z,32.50
2022-08-14T13:17:28.463Z,32.60
2022-08-14T13:19:58.807Z,32.70
2022-08-14T13:22:33.466Z,32.70
2022-08-14T13:25:12.726Z,32.80
2022-08-14T13:27:46.656Z,32.70
2022-08-14T13:30:23.746Z,32.90
2022-08-14T13:32:53.813Z,33.00
2022-08-14T13:35:22.830Z,33.30
2022-08-14T13:37:53.588Z,33.50
2022-08-14T13:40:26.567Z,33.90
2022-08-14T13:42:57.231Z,34.30
2022-08-14T13:45:33.710Z,35.30
2022-08-14T13:48:33.465Z,37.00
2022-08-14T13:51:08.061Z,38.30
2022-08-14T13:54:06.915Z,39.60
2022-08-14T13:56:42.335Z,40.90
2022-08-14T13:59:11.677Z,42.70
2022-08-14T14:01:45.834Z,43.90
2022-08-14T14:04:20.307Z,44.90
2022-08-14T14:06:50.949Z,45.20
2022-08-14T14:09:27.291Z,44.00
2022-08-14T14:12:36.568Z,42.50
2022-08-14T14:14:57.294Z,42.00
2022-08-14T14:17:31.626Z,43.20
2022-08-14T14:20:00.290Z,44.50
2022-08-14T14:33:45.170Z,45.30
2022-08-14T14:36:14.027Z,47.90
2022-08-14T14:38:45.099Z,48.60
2022-08-14T14:41:17.485Z,48.80
2022-08-14T14:43:51.682Z,49.00
2022-08-14T14:46:21.907Z,48.90
2022-08-14T14:49:14.785Z,49.20
2022-08-14T14:51:50.973Z,49.40
2022-08-14T14:54:31.232Z,49.40
2022-08-14T14:57:02.172Z,49.20
2022-08-14T14:59:33.636Z,49.00
2022-08-14T15:02:08.057Z,48.90
2022-08-14T15:04:43.827Z,49.00
2022-08-14T15:07:12.350Z,49.00
2022-08-14T15:09:41.739Z,49.00
2022-08-14T15:12:28.051Z,48.90
2022-08-14T15:15:08.866Z,48.80
2022-08-14T15:17:40.865Z,48.60
2022-08-14T15:20:17.134Z,48.10
2022-08-14T15:23:00.945Z,48.00
2022-08-14T15:25:37.186Z,48.00
2022-08-14T15:28:11.656Z,48.00
2022-08-14T15:30:42.102Z,47.90
2022-08-14T15:33:10.940Z,47.90
2022-08-14T15:35:46.131Z,48.00
2022-08-14T15:38:17.626Z,48.00
2022-08-14T15:40:51.729Z,47.70
2022-08-14T15:43:27.369Z,47.30
2022-08-14T15:46:00.007Z,46.80
2022-08-14T15:48:29.610Z,47.00
2022-08-14T15:50:59.820Z,47.00
2022-08-14T15:53:31.613Z,46.90
2022-08-14T15:56:00.391Z,46.60
2022-08-14T15:58:29.202Z,46.60
2022-08-14T16:01:31.213Z,46.40
2022-08-14T16:04:04.228Z,46.20
2022-08-14T16:06:37.120Z,45.90
2022-08-14T16:09:10.730Z,45.90
2022-08-14T16:11:43.231Z,45.80
2022-08-14T16:14:21.304Z,45.70
2022-08-14T16:16:59.987Z,45.50
2022-08-14T16:19:31.584Z,44.90
2022-08-14T16:22:59.321Z,44.80
2022-08-14T16:25:03.138Z,44.70
2022-08-14T16:27:33.703Z,44.30
2022-08-14T16:30:10.933Z,44.30
2022-08-14T16:32:54.935Z,44.10
2022-08-14T16:35:26.468Z,43.90
2022-08-14T16:38:19.634Z,43.80
2022-08-14T16:41:23.183Z,43.80
2022-08-14T16:43:59.171Z,43.30
2022-08-14T16:46:31.444Z,42.90
2022-08-14T16:49:01.669Z,43.00
2022-08-14T16:51:36.229Z,42.90
2022-08-14T16:54:34.026Z,42.70
2022-08-14T16:57:14.025Z,42.60
2022-08-14T16:59:57.255Z,42.20
2022-08-14T17:02:41.740Z,42.00
2022-08-14T17:05:18.533Z,41.60
2022-08-14T17:08:41.545Z,41.10
2022-08-14T17:11:10.894Z,41.10
2022-08-14T17:13:58.719Z,40.80
2022-08-14T17:16:35.925Z,40.50
2022-08-14T17:19:09.836Z,40.10
2022-08-14T17:21:47.501Z,39.70
2022-08-14T17:24:57.129Z,39.30
2022-08-14T17:27:09.233Z,39.00
2022-08-14T17:29:44.608Z,38.40
2022-08-14T17:32:56.570Z,37.90
2022-08-14T17:35:26.799Z,37.40
2022-08-14T17:38:33.714Z,36.90
2022-08-14T17:41:22.928Z,36.50
2022-08-14T17:43:54.961Z,36.20
2022-08-14T17:46:37.307Z,35.70
2022-08-14T17:49:17.939Z,35.50
2022-08-14T17:52:01.735Z,35.40
2022-08-14T17:54:34.502Z,35.20
2022-08-14T17:57:10.601Z,34.90
2022-08-14T17:59:45.754Z,34.60
2022-08-14T18:02:18.766Z,34.00
2022-08-14T18:04:51.145Z,33.40
2022-08-14T18:07:59.969Z,32.80
2022-08-14T18:10:51.988Z,32.20
2022-08-14T18:13:01.750Z,31.60
2022-08-14T18:15:35.531Z,31.20
2022-08-14T18:18:08.983Z,30.70
2022-08-14T18:21:41.708Z,30.30
2022-08-14T18:23:28.253Z,29.80
2022-08-14T18:25:59.493Z,29.50
2022-08-14T18:28:51.257Z,29.20
2022-08-14T18:31:43.588Z,28.90
2022-08-14T18:34:31.741Z,28.60
2022-08-14T18:37:14.378Z,28.30
2022-08-14T18:40:03.299Z,27.90
2022-08-14T18:42:44.131Z,27.60
2022-08-14T18:45:16.036Z,27.40
2022-08-14T18:48:14.210Z,27.20
2022-08-14T18:50:52.511Z,27.00
2022-08-14T18:53:24.565Z,26.80
2022-08-14T18:55:56.149Z,26.60
2022-08-14T18:58:34.225Z,26.40
2022-08-14T19:01:06.436Z,26.20
2022-08-14T19:03:58.174Z,26.00
2022-08-14T19:06:48.002Z,25.90
2022-08-14T19:09:52.841Z,25.70
2022-08-14T19:13:00.493Z,25.40
2022-08-14T19:15:31.804Z,25.20
2022-08-14T19:18:10.901Z,25.10
2022-08-14T19:20:54.060Z,25.00
2022-08-14T19:23:42.771Z,24.80
2022-08-14T19:26:36.224Z,24.70
2022-08-14T19:29:24.450Z,24.60
2022-08-14T19:31:59.069Z,24.40
2022-08-14T19:34:40.508Z,24.30
2022-08-14T19:37:46.109Z,24.10
2022-08-14T19:40:19.601Z,23.90
2022-08-14T19:42:49.284Z,23.70
2022-08-14T19:45:18.604Z,23.50
2022-08-14T19:47:50.006Z,23.30
2022-08-14T19:50:37.953Z,23.20
2022-08-14T19:53:17.791Z,23.10
2022-08-14T19:55:59.637Z,23.00
2022-08-14T19:58:54.587Z,22.90
2022-08-14T20:01:37.152Z,22.80
2022-08-14T20:04:45.363Z,22.70
2022-08-14T20:07:00.276Z,22.50
2022-08-14T20:11:05.013Z,22.40
2022-08-14T20:12:35.530Z,22.30
2022-08-14T20:15:15.336Z,22.20
2022-08-14T20:17:52.673Z,22.10
2022-08-14T20:20:31.765Z,22.10
2022-08-14T20:23:11.331Z,22.00
2022-08-14T20:25:45.662Z,21.90
2022-08-14T20:28:35.739Z,21.80
2022-08-14T20:31:15.912Z,21.80
2022-08-14T20:34:06.217Z,21.70
2022-08-14T20:36:38.976Z,21.70
2022-08-14T20:39:15.075Z,21.60
2022-08-14T20:41:51.511Z,21.60
2022-08-14T20:44:41.089Z,21.50
2022-08-14T20:47:16.376Z,21.40
2022-08-14T20:49:45.444Z,21.40
2022-08-14T20:52:20.137Z,21.40
2022-08-14T20:54:51.766Z,21.40
2022-08-14T20:57:21.486Z,21.40
2022-08-14T20:59:53.242Z,21.40
2022-08-14T21:02:46.635Z,21.30
2022-08-14T21:05:33.282Z,21.30
2022-08-14T21:08:09.711Z,21.30
2022-08-14T21:10:51.740Z,21.20
2022-08-14T21:14:08.605Z,21.20
2022-08-14T21:16:33.662Z,21.20
2022-08-14T21:19:00.112Z,21.10
2022-08-14T21:21:41.299Z,21.00
2022-08-14T21:24:38.416Z,21.00
2022-08-14T21:27:12.090Z,21.00
2022-08-14T21:29:55.287Z,20.90
2022-08-14T21:32:50.457Z,20.80
2022-08-14T21:35:28.696Z,20.80
2022-08-14T21:37:57.992Z,20.70
2022-08-14T21:40:40.888Z,20.70
2022-08-14T21:43:17.646Z,20.70
2022-08-14T21:45:53.587Z,20.60
2022-08-14T21:48:25.220Z,20.60
2022-08-14T21:51:01.414Z,20.60
2022-08-14T21:53:59.231Z,20.60
2022-08-14T21:56:37.388Z,20.50
2022-08-14T21:59:10.714Z,20.50
2022-08-14T22:02:01.082Z,20.40
2022-08-14T22:04:33.730Z,20.40
2022-08-14T22:07:07.202Z,20.30
2022-08-14T22:09:37.110Z,20.30
2022-08-14T22:12:07.331Z,20.30
2022-08-14T22:14:43.801Z,20.20
2022-08-14T22:17:17.021Z,20.20
2022-08-14T22:19:47.460Z,20.20
2022-08-14T22:22:25.952Z,20.10
2022-08-14T22:25:00.245Z,20.10
2022-08-14T22:27:31.205Z,20.10
2022-08-14T22:30:01.713Z,20.00
2022-08-14T22:32:56.029Z,20.00
2022-08-14T22:35:19.414Z,20.00
2022-08-14T22:38:36.026Z,20.00
2022-08-14T22:40:58.963Z,19.90
2022-08-14T22:43:35.973Z,20.00
2022-08-14T22:46:06.168Z,20.00
2022-08-14T22:48:45.256Z,19.90
2022-08-14T22:51:16.028Z,19.90
2022-08-14T22:53:49.003Z,19.90
2022-08-14T22:56:22.334Z,19.80
2022-08-14T22:59:00.136Z,19.80
2022-08-14T23:01:57.274Z,19.80
2022-08-14T23:04:35.801Z,19.70
2022-08-14T23:07:21.744Z,19.60
2022-08-14T23:09:55.780Z,19.60
2022-08-14T23:12:29.496Z,19.50
2022-08-14T23:15:00.246Z,19.50
2022-08-14T23:17:39.361Z,19.40
2022-08-14T23:20:19.332Z,19.40
2022-08-14T23:22:51.484Z,19.30
2022-08-14T23:25:44.729Z,19.30
2022-08-14T23:28:34.556Z,19.20
2022-08-14T23:31:08.465Z,19.20
2022-08-14T23:33:42.053Z,19.10
2022-08-14T23:36:31.516Z,19.10
2022-08-14T23:39:10.097Z,19.10
2022-08-14T23:41:46.540Z,19.10
2022-08-14T23:44:23.584Z,19.00
2022-08-14T23:46:57.095Z,19.00
2022-08-14T23:50:00.055Z,19.00
2022-08-14T23:52:55.965Z,19.00
2022-08-14T23:55:11.338Z,18.90
2022-08-14T23:57:44.228Z,18.90
